Temp: 17.7°C   Baro: 1023.9mb
  Wind: 6.9mph   Dir: N (352°)
  Rain: 7.0mm (0.0mm/hr)
  Solar: 44W/m2  Hum: 64%

Historic data

Bath Spa Weather Station Historical Data
Daily Summary for May 19, 2022 Units:  Metric    English   Both
Daily Weekly Monthly Yearly Custom
  High: Low: Average:
Temperature: 19.4 °C 9.9 °C 14.2 °C
Dew Point: 13 °C 8.7 °C 10.8 °C
Humidity: 96% 61.6% 81%
Wind Speed: 13.2km/h 0km/h 3.9km/h
Wind Gust: 22.5km/h - -
Wind- - West
Pressure: 1021.2 hPa 1015.8 hPa -
Precipitation: 0.25 mm    
Historical Graphs
 
 
Tabular Data for May 19, 2022
Time Temperature Dew Point Pressure Wind Wind Speed Wind Gust Humidity Rainfall Rate (Hourly) solar
00:09 12.2 °C 11.2 °C 1015.8 hPa WNW 3.9 km/h 6.4 km/h 94% 0.25 mm 0 W/m2
00:14 12.1 °C 11.2 °C 1016.1 hPa WNW 1.6 km/h 4.8 km/h 94% 0.25 mm 0 W/m2
00:19 12.1 °C 11.2 °C 1016.1 hPa WNW 0.6 km/h 3.2 km/h 94% 0.25 mm 0 W/m2
00:24 11.9 °C 11.1 °C 1016.1 hPa WNW 1.8 km/h 3.2 km/h 94% 0.25 mm 0 W/m2
00:29 11.9 °C 11 °C 1016.1 hPa WNW 1 km/h 3.2 km/h 94% 0.25 mm 0 W/m2
00:34 11.9 °C 11 °C 1016.1 hPa WNW 0.3 km/h 3.2 km/h 94% 0.25 mm 0 W/m2
00:39 11.9 °C 11 °C 1016.1 hPa Calm   1.6 km/h 94% 0.25 mm 0 W/m2
00:44 11.8 °C 10.9 °C 1016.1 hPa Calm     94% 0.25 mm 0 W/m2
00:49 11.8 °C 10.9 °C 1016.1 hPa WNW 0.8 km/h 1.6 km/h 94% 0.25 mm 0 W/m2
00:54 11.8 °C 10.9 °C 1016.1 hPa WNW 0.3 km/h 1.6 km/h 94% 0.25 mm 0 W/m2
00:59 11.8 °C 10.9 °C 1016.1 hPa WNW 0.8 km/h 1.6 km/h 94% 0.25 mm 0 W/m2
01:04 11.8 °C 10.9 °C 1016.1 hPa Calm   1.6 km/h 94% 0.25 mm 0 W/m2
01:09 11.8 °C 10.9 °C 1016.1 hPa Calm     94% 0 mm 0 W/m2
01:14 11.7 °C 10.8 °C 1016.1 hPa Calm     94% 0 mm 0 W/m2
01:19 11.7 °C 10.8 °C 1016.5 hPa Calm     94% 0 mm 0 W/m2
01:24 11.6 °C 10.7 °C 1016.5 hPa Calm     94% 0 mm 0 W/m2
01:29 11.6 °C 10.7 °C 1016.5 hPa Calm     94% 0 mm 0 W/m2
01:34 11.6 °C 10.7 °C 1016.5 hPa Calm     94% 0 mm 0 W/m2
01:39 11.6 °C 10.7 °C 1016.5 hPa Calm     94% 0 mm 0 W/m2
01:44 11.6 °C 10.7 °C 1016.5 hPa Calm     94% 0 mm 0 W/m2
01:49 11.6 °C 10.7 °C 1016.5 hPa Calm     94% 0 mm 0 W/m2
01:54 11.5 °C 10.6 °C 1016.5 hPa Calm     94% 0 mm 0 W/m2
01:59 11.4 °C 10.5 °C 1016.8 hPa Calm     94% 0 mm 0 W/m2
02:04 11.3 °C 10.4 °C 1016.8 hPa Calm     94% 0 mm 0 W/m2
02:09 11.3 °C 10.4 °C 1016.8 hPa Calm     94% 0 mm 0 W/m2
02:14 11.2 °C 10.3 °C 1016.8 hPa Calm     94% 0 mm 0 W/m2
02:19 11.2 °C 10.3 °C 1016.8 hPa Calm     94% 0 mm 0 W/m2
02:24 11.2 °C 10.2 °C 1016.8 hPa Calm     94% 0 mm 0 W/m2
02:29 11.2 °C 10.3 °C 1016.8 hPa Calm     94% 0 mm 0 W/m2
02:34 11.1 °C 10.2 °C 1016.8 hPa Calm     94% 0 mm 0 W/m2
02:39 11 °C 10.1 °C 1016.8 hPa Calm     94% 0 mm 0 W/m2
02:44 10.9 °C 10 °C 1016.8 hPa Calm     94% 0 mm 0 W/m2
02:49 10.9 °C 10 °C 1016.8 hPa Calm     94% 0 mm 0 W/m2
02:54 10.9 °C 10.1 °C 1016.8 hPa Calm     94.6% 0 mm 0 W/m2
02:59 10.9 °C 10.1 °C 1016.8 hPa Calm     95% 0 mm 0 W/m2
03:04 10.9 °C 10.1 °C 1016.8 hPa Calm     95% 0 mm 0 W/m2
03:09 10.8 °C 10 °C 1016.8 hPa Calm     95% 0 mm 0 W/m2
03:14 10.8 °C 10 °C 1016.8 hPa Calm     95% 0 mm 0 W/m2
03:19 10.8 °C 10 °C 1016.8 hPa WNW 3.5 km/h 4.8 km/h 95% 0 mm 0 W/m2
03:24 10.7 °C 9.9 °C 1016.8 hPa WNW 2.9 km/h 4.8 km/h 95% 0 mm 0 W/m2
03:29 10.7 °C 9.8 °C 1016.8 hPa WNW 3.9 km/h 4.8 km/h 95% 0 mm 0 W/m2
03:34 10.6 °C 9.8 °C 1016.8 hPa WNW 2.9 km/h 4.8 km/h 95% 0 mm 0 W/m2
03:39 10.4 °C 9.7 °C 1016.8 hPa WNW 2.7 km/h 4.8 km/h 95% 0 mm 0 W/m2
03:44 10.2 °C 9.4 °C 1016.8 hPa WNW 2.4 km/h 4.8 km/h 95% 0 mm 0 W/m2
03:49 10.2 °C 9.3 °C 1016.8 hPa WNW 0.3 km/h 1.6 km/h 95% 0 mm 0 W/m2
03:54 10.1 °C 9.3 °C 1016.8 hPa Calm     95% 0 mm 0 W/m2
03:59 10.1 °C 9.3 °C 1016.8 hPa Calm     95% 0 mm 0 W/m2
04:04 10.1 °C 9.3 °C 1016.8 hPa Calm     95% 0 mm 0 W/m2
04:09 10.1 °C 9.3 °C 1016.8 hPa Calm     95% 0 mm 0 W/m2
04:14 10.2 °C 9.4 °C 1016.8 hPa Calm     95% 0 mm 0 W/m2
04:19 10.2 °C 9.4 °C 1016.8 hPa Calm     95% 0 mm 0 W/m2
04:24 10.3 °C 9.4 °C 1016.8 hPa Calm     95% 0 mm 0 W/m2
04:29 10.3 °C 9.5 °C 1016.8 hPa WNW 0.3 km/h 3.2 km/h 95% 0 mm 0 W/m2
04:34 10.3 °C 9.5 °C 1016.8 hPa WNW 2.1 km/h 3.2 km/h 95% 0 mm 0 W/m2
04:39 10.2 °C 9.4 °C 1016.8 hPa WNW 0.6 km/h 3.2 km/h 95% 0 mm 0 W/m2
04:44 10.2 °C 9.4 °C 1016.8 hPa WNW 0.3 km/h 1.6 km/h 95% 0 mm 0 W/m2
04:49 10.2 °C 9.4 °C 1016.8 hPa Calm   1.6 km/h 95% 0 mm 0 W/m2
04:54 10.2 °C 9.3 °C 1016.8 hPa Calm     95% 0 mm 0 W/m2
04:59 10.1 °C 9.3 °C 1016.8 hPa Calm     95% 0 mm 0 W/m2
05:04 10.1 °C 9.3 °C 1016.8 hPa Calm   1.6 km/h 95% 0 mm 0 W/m2
05:09 10.1 °C 9.3 °C 1016.8 hPa Calm     95% 0 mm 0 W/m2
05:14 10.2 °C 9.4 °C 1016.8 hPa WNW 0.6 km/h 1.6 km/h 95% 0 mm 0 W/m2
05:19 10.2 °C 9.3 °C 1016.8 hPa WNW 1.8 km/h 3.2 km/h 95% 0 mm 0 W/m2
05:24 10.1 °C 9.3 °C 1016.8 hPa WNW 0.3 km/h 3.2 km/h 95% 0 mm 9 W/m2
05:29 10 °C 9.2 °C 1016.8 hPa Calm     95% 0 mm 9 W/m2
05:34 9.9 °C 9.2 °C 1016.8 hPa Calm     95% 0 mm 12 W/m2
05:39 9.9 °C 9.1 °C 1016.8 hPa Calm     95% 0 mm 14 W/m2
05:44 9.9 °C 9.2 °C 1016.8 hPa Calm     95% 0 mm 16 W/m2
05:49 9.9 °C 9.1 °C 1016.8 hPa Calm     95% 0 mm 16 W/m2
05:54 9.9 °C 9.1 °C 1016.8 hPa Calm     95% 0 mm 16 W/m2
06:04 9.9 °C 9.1 °C 1017.2 hPa Calm     95% 0 mm 25 W/m2
06:08 9.9 °C 9.2 °C 1017.2 hPa Calm   1.6 km/h 95% 0 mm 30 W/m2
06:14 10.1 °C 9.3 °C 1017.2 hPa WNW 0.3 km/h 1.6 km/h 95% 0 mm 47 W/m2
06:19 10.1 °C 9.3 °C 1017.2 hPa Calm     95% 0 mm 58 W/m2
06:24 10.2 °C 9.3 °C 1017.2 hPa Calm     95% 0 mm 60 W/m2
06:29 10.2 °C 9.5 °C 1017.5 hPa Calm     95.6% 0 mm 60 W/m2
06:34 10.2 °C 9.6 °C 1017.8 hPa WNW 0.6 km/h 3.2 km/h 96% 0 mm 51 W/m2
06:39 10.2 °C 9.6 °C 1017.8 hPa Calm   1.6 km/h 96% 0 mm 46 W/m2
06:44 10.2 °C 9.6 °C 1017.8 hPa Calm   1.6 km/h 96% 0 mm 53 W/m2
06:49 10.3 °C 9.7 °C 1017.8 hPa Calm   1.6 km/h 96% 0 mm 54 W/m2
06:54 10.4 °C 9.8 °C 1017.8 hPa Calm     96% 0 mm 86 W/m2
06:59 10.7 °C 10.2 °C 1017.8 hPa Calm     96% 0 mm 97 W/m2
07:04 11.2 °C 10.6 °C 1017.8 hPa Calm     96% 0 mm 95 W/m2
07:09 11.4 °C 10.8 °C 1017.8 hPa Calm     96% 0 mm 86 W/m2
07:14 11.1 °C 10.4 °C 1017.8 hPa Calm     96% 0 mm 114 W/m2
07:16 10.9 °C 10.3 °C 1017.8 hPa Calm     96% 0 mm 130 W/m2
07:24 10.9 °C 10.3 °C 1017.8 hPa Calm     96% 0 mm 134 W/m2
07:29 11.1 °C 10.5 °C 1018.5 hPa WNW 1 km/h 4.8 km/h 96% 0 mm 141 W/m2
07:34 11.1 °C 10.5 °C 1018.2 hPa Calm   4.8 km/h 96% 0 mm 165 W/m2
07:36 11.1 °C 10.5 °C 1018.5 hPa WNW 0.8 km/h 1.6 km/h 96% 0 mm 174 W/m2
07:44 11.1 °C 10.5 °C 1018.5 hPa WNW 1.9 km/h 3.2 km/h 96% 0 mm 178 W/m2
07:49 11.2 °C 10.6 °C 1018.5 hPa WNW 0.8 km/h 3.2 km/h 96% 0 mm 378 W/m2
07:54 11.6 °C 10.9 °C 1018.5 hPa WNW 0.6 km/h 3.2 km/h 96% 0 mm 311 W/m2
07:59 11.4 °C 10.8 °C 1018.5 hPa WNW 1.3 km/h 4.8 km/h 96% 0 mm 211 W/m2
08:04 11.6 °C 11 °C 1018.5 hPa Calm   1.6 km/h 96% 0 mm 192 W/m2
08:09 11.8 °C 11.3 °C 1018.5 hPa Calm     96% 0 mm 197 W/m2
08:14 12.3 °C 11.7 °C 1018.5 hPa Calm     96% 0 mm 459 W/m2
08:19 12.6 °C 12 °C 1018.5 hPa Calm     96% 0 mm 236 W/m2
08:24 12.7 °C 12.1 °C 1018.2 hPa Calm     96% 0 mm 475 W/m2
08:29 13.1 °C 12.4 °C 1018.5 hPa Calm     96% 0 mm 489 W/m2
08:34 12.8 °C 12.1 °C 1018.8 hPa WNW 1.9 km/h 8 km/h 95.2% 0 mm 258 W/m2
08:39 12.7 °C 11.9 °C 1018.8 hPa West 4.5 km/h 9.7 km/h 95% 0 mm 265 W/m2
08:44 12.8 °C 11.9 °C 1018.8 hPa West 4.7 km/h 8 km/h 95% 0 mm 339 W/m2
08:49 12.9 °C 12.2 °C 1018.8 hPa West 3.5 km/h 6.4 km/h 95% 0 mm 318 W/m2
08:54 13.1 °C 12.2 °C 1018.8 hPa West 6.3 km/h 11.3 km/h 94.4% 0 mm 311 W/m2
08:59 13.1 °C 12.2 °C 1018.8 hPa West 7.4 km/h 11.3 km/h 94% 0 mm 202 W/m2
09:04 13.1 °C 12.2 °C 1019.2 hPa West 6.8 km/h 12.9 km/h 94% 0 mm 146 W/m2
09:09 12.9 °C 11.9 °C 1019.2 hPa West 6.8 km/h 12.9 km/h 93.6% 0 mm 148 W/m2
09:14 12.8 °C 11.7 °C 1019.2 hPa West 4.5 km/h 11.3 km/h 93% 0 mm 125 W/m2
09:19 12.9 °C 11.8 °C 1019.2 hPa West 3.2 km/h 8 km/h 93% 0 mm 232 W/m2
09:24 13 °C 11.8 °C 1019.2 hPa West 5 km/h 8 km/h 92.4% 0 mm 320 W/m2
09:29 13.2 °C 11.9 °C 1019.5 hPa West 6 km/h 9.7 km/h 92% 0 mm 501 W/m2
09:34 13.4 °C 12.1 °C 1019.5 hPa West 8 km/h 14.5 km/h 91.6% 0 mm 373 W/m2
09:39 13.3 °C 11.9 °C 1019.5 hPa WNW 8.7 km/h 17.7 km/h 91% 0 mm 334 W/m2
09:44 13.4 °C 11.8 °C 1019.5 hPa West 7.1 km/h 12.9 km/h 90.2% 0 mm 290 W/m2
09:49 13.4 °C 11.7 °C 1019.5 hPa West 2.7 km/h 8 km/h 89.4% 0 mm 345 W/m2
09:54 13.7 °C 11.8 °C 1019.2 hPa West 6.4 km/h 11.3 km/h 88.8% 0 mm 506 W/m2
09:59 13.6 °C 11.6 °C 1019.2 hPa West 4.2 km/h 12.9 km/h 87.4% 0 mm 506 W/m2
10:04 13.9 °C 11.6 °C 1019.2 hPa West 2.6 km/h 8 km/h 85.8% 0 mm 742 W/m2
10:09 14.5 °C 11.8 °C 1019.2 hPa West 5.1 km/h 9.7 km/h 84.2% 0 mm 784 W/m2
10:14 14.7 °C 11.8 °C 1019.2 hPa West 2.7 km/h 6.4 km/h 82.8% 0 mm 784 W/m2
10:19 14.6 °C 11.4 °C 1019.5 hPa West 3.4 km/h 6.4 km/h 81.2% 0 mm 729 W/m2
10:24 14.7 °C 11.4 °C 1019.5 hPa West 2.9 km/h 8 km/h 80.4% 0 mm 784 W/m2
10:29 15.1 °C 11.4 °C 1019.5 hPa West 3.4 km/h 8 km/h 78.8% 0 mm 765 W/m2
10:34 15.2 °C 11.4 °C 1019.5 hPa West 6.4 km/h 12.9 km/h 78.4% 0 mm 840 W/m2
10:39 15.2 °C 11.2 °C 1019.5 hPa West 2.7 km/h 8 km/h 77.4% 0 mm 795 W/m2
10:44 15.4 °C 11.4 °C 1019.5 hPa WSW 3.2 km/h 9.7 km/h 77% 0 mm 800 W/m2
10:49 15.7 °C 11.1 °C 1019.5 hPa WSW 7.9 km/h 14.5 km/h 73.8% 0 mm 780 W/m2
10:54 15.6 °C 10.9 °C 1019.5 hPa West 5.1 km/h 14.5 km/h 73.4% 0 mm 905 W/m2
10:59 16.2 °C 11.4 °C 1019.5 hPa WNW 6 km/h 11.3 km/h 73.2% 0 mm 942 W/m2
11:04 16.2 °C 11 °C 1019.5 hPa WSW 5.3 km/h 12.9 km/h 71.6% 0 mm 886 W/m2
11:09 15.7 °C 10.7 °C 1019.9 hPa SW 9 km/h 14.5 km/h 72% 0 mm 512 W/m2
11:14 15.8 °C 11.1 °C 1019.9 hPa West 7.1 km/h 14.5 km/h 73.2% 0 mm 1004 W/m2
11:19 16.1 °C 10.7 °C 1019.9 hPa WNW 9.3 km/h 14.5 km/h 70.8% 0 mm 904 W/m2
11:24 16.1 °C 10.8 °C 1019.9 hPa WNW 4.2 km/h 12.9 km/h 71% 0 mm 981 W/m2
11:29 16 °C 10.8 °C 1019.9 hPa WNW 8.4 km/h 16.1 km/h 71.4% 0 mm 457 W/m2
11:34 15.7 °C 10.8 °C 1019.9 hPa NW 7.2 km/h 11.3 km/h 72.4% 0 mm 292 W/m2
11:39 15.7 °C 11.1 °C 1019.9 hPa West 7.4 km/h 14.5 km/h 74% 0 mm 1005 W/m2
11:44 16.3 °C 11.3 °C 1019.9 hPa West 8.7 km/h 19.3 km/h 72.6% 0 mm 1005 W/m2
11:49 16.3 °C 10.9 °C 1019.5 hPa West 8.2 km/h 16.1 km/h 70.2% 0 mm 951 W/m2
11:54 16.9 °C 11 °C 1019.5 hPa West 6.3 km/h 16.1 km/h 68% 0 mm 881 W/m2
11:59 17.1 °C 11.1 °C 1019.5 hPa West 8.4 km/h 19.3 km/h 67.6% 0 mm 893 W/m2
12:04 17.1 °C 11.4 °C 1019.5 hPa West 8.9 km/h 16.1 km/h 69.2% 0 mm 1000 W/m2
12:09 17.2 °C 11.7 °C 1019.5 hPa West 11.4 km/h 19.3 km/h 69.6% 0 mm 1021 W/m2
12:14 16.9 °C 11.7 °C 1019.9 hPa West 6.6 km/h 14.5 km/h 71.4% 0 mm 244 W/m2
12:19 16.6 °C 11.6 °C 1019.9 hPa WNW 10.9 km/h 19.3 km/h 72.6% 0 mm 461 W/m2
12:29 16.4 °C 11.2 °C 1019.5 hPa WSW 8 km/h 19.3 km/h 71.5% 0 mm 947 W/m2
12:34 16.7 °C 11.7 °C 1019.5 hPa West 9.3 km/h 19.3 km/h 72.4% 0 mm 990 W/m2
12:39 17.1 °C 11.7 °C 1019.5 hPa West 6.3 km/h 19.3 km/h 70.6% 0 mm 1041 W/m2
12:44 17.2 °C 12 °C 1019.5 hPa WNW 9.7 km/h 19.3 km/h 71.4% 0 mm 1046 W/m2
12:49 17.2 °C 12.1 °C 1019.5 hPa WNW 6.8 km/h 16.1 km/h 72% 0 mm 1072 W/m2
12:54 17.2 °C 12 °C 1019.5 hPa WNW 8 km/h 16.1 km/h 71.8% 0 mm 257 W/m2
12:59 16.9 °C 11.8 °C 1019.5 hPa WNW 9.3 km/h 16.1 km/h 71.8% 0 mm 345 W/m2
13:04 17.1 °C 11.8 °C 1019.5 hPa West 6.3 km/h 12.9 km/h 70.8% 0 mm 1072 W/m2
13:09 17.4 °C 12.1 °C 1019.5 hPa WSW 9.3 km/h 16.1 km/h 70.8% 0 mm 1042 W/m2
13:14 17.6 °C 12.1 °C 1019.5 hPa WNW 5.8 km/h 16.1 km/h 70% 0 mm 1053 W/m2
13:19 18.2 °C 12.4 °C 1019.5 hPa WNW 4.3 km/h 9.7 km/h 69% 0 mm 1053 W/m2
13:24 18.4 °C 12.3 °C 1019.5 hPa WSW 6.4 km/h 14.5 km/h 67.4% 0 mm 1020 W/m2
13:29 18.1 °C 11.7 °C 1019.5 hPa WSW 5.5 km/h 16.1 km/h 66.2% 0 mm 719 W/m2
13:34 17.8 °C 11.9 °C 1019.5 hPa WNW 7.4 km/h 14.5 km/h 68.4% 0 mm 1032 W/m2
13:39 17.6 °C 11.8 °C 1019.5 hPa West 6.4 km/h 12.9 km/h 69% 0 mm 1032 W/m2
13:44 17.3 °C 11.9 °C 1019.5 hPa WNW 7.7 km/h 12.9 km/h 70.4% 0 mm 251 W/m2
13:49 17.6 °C 12.1 °C 1019.9 hPa NW 5.3 km/h 11.3 km/h 70% 0 mm 993 W/m2
13:54 17.7 °C 11.9 °C 1019.9 hPa WNW 7.7 km/h 12.9 km/h 68.6% 0 mm 232 W/m2
13:59 17.5 °C 11.8 °C 1019.9 hPa West 2.7 km/h 9.7 km/h 69% 0 mm 350 W/m2
14:04 18.1 °C 12.2 °C 1019.9 hPa West 4.2 km/h 9.7 km/h 69% 0 mm 598 W/m2
14:09 17.8 °C 12 °C 1019.9 hPa West 6.6 km/h 12.9 km/h 69% 0 mm 1030 W/m2
14:14 18.2 °C 12.3 °C 1019.9 hPa WSW 6.3 km/h 12.9 km/h 68.8% 0 mm 1011 W/m2
14:19 17.9 °C 11.9 °C 1019.9 hPa SW 6.6 km/h 14.5 km/h 67.8% 0 mm 318 W/m2
14:24 17.9 °C 12.1 °C 1019.9 hPa SSW 3.4 km/h 12.9 km/h 69.2% 0 mm 896 W/m2
14:29 18.3 °C 12 °C 1019.9 hPa West 8.7 km/h 14.5 km/h 66.6% 0 mm 923 W/m2
14:34 18.2 °C 11.7 °C 1019.9 hPa WSW 5.3 km/h 12.9 km/h 66% 0 mm 260 W/m2
14:39 18.2 °C 12.1 °C 1019.9 hPa West 6.6 km/h 11.3 km/h 67.6% 0 mm 888 W/m2
14:44 18.5 °C 12.1 °C 1019.9 hPa West 5.8 km/h 14.5 km/h 66% 0 mm 1023 W/m2
14:49 18.7 °C 12 °C 1019.9 hPa WSW 4.5 km/h 12.9 km/h 65.4% 0 mm 1028 W/m2
14:54 18.9 °C 12.3 °C 1019.9 hPa West 8.5 km/h 14.5 km/h 65.4% 0 mm 930 W/m2
14:59 19 °C 11.9 °C 1019.9 hPa SW 7.2 km/h 14.5 km/h 63.4% 0 mm 401 W/m2
15:04 19 °C 11.8 °C 1019.9 hPa WSW 4 km/h 12.9 km/h 63.2% 0 mm 524 W/m2
15:09 18.7 °C 11.4 °C 1019.9 hPa SW 5.6 km/h 16.1 km/h 62.8% 0 mm 970 W/m2
15:14 19.4 °C 11.9 °C 1019.9 hPa SW 1.9 km/h 8 km/h 61.6% 0 mm 928 W/m2
15:19 19.4 °C 11.9 °C 1019.9 hPa WSW 5.3 km/h 12.9 km/h 61.8% 0 mm 923 W/m2
15:24 18.9 °C 11.6 °C 1019.9 hPa WSW 9.2 km/h 16.1 km/h 62.4% 0 mm 338 W/m2
15:29 18.7 °C 11.6 °C 1019.9 hPa WSW 5.1 km/h 11.3 km/h 63.2% 0 mm 939 W/m2
15:34 18.8 °C 11.7 °C 1019.5 hPa West 6.4 km/h 14.5 km/h 63.5% 0 mm 322 W/m2
15:39 18.8 °C 11.9 °C 1019.5 hPa WNW 6.4 km/h 14.5 km/h 64.4% 0 mm 958 W/m2
15:44 18.8 °C 12.2 °C 1019.5 hPa WNW 5.1 km/h 12.9 km/h 65% 0 mm 649 W/m2
15:49 18.9 °C 12.1 °C 1019.5 hPa West 6.6 km/h 14.5 km/h 64.4% 0 mm 390 W/m2
15:54 18.7 °C 12.1 °C 1019.5 hPa West 6.9 km/h 12.9 km/h 65.4% 0 mm 309 W/m2
15:59 18.7 °C 12.2 °C 1019.5 hPa West 5.5 km/h 11.3 km/h 66% 0 mm 343 W/m2
16:04 19 °C 12.2 °C 1019.5 hPa WSW 6.6 km/h 11.3 km/h 64.6% 0 mm 355 W/m2
16:09 18.7 °C 11.6 °C 1019.5 hPa West 7.2 km/h 14.5 km/h 63.6% 0 mm 237 W/m2
16:14 18.4 °C 11.7 °C 1019.5 hPa West 7.2 km/h 14.5 km/h 64.6% 0 mm 487 W/m2
16:19 18.8 °C 11.9 °C 1019.5 hPa WSW 5.8 km/h 11.3 km/h 64.2% 0 mm 819 W/m2
16:24 19 °C 11.9 °C 1019.5 hPa West 8.7 km/h 16.1 km/h 63.8% 0 mm 269 W/m2
16:34 18.3 °C 11.7 °C 1019.5 hPa WNW 7.1 km/h 14.5 km/h 65.6% 0 mm 290 W/m2
16:39 18.3 °C 11.8 °C 1019.5 hPa WNW 7.6 km/h 14.5 km/h 66% 0 mm 234 W/m2
16:44 18.2 °C 12 °C 1019.5 hPa WNW 10 km/h 12.9 km/h 67% 0 mm 684 W/m2
16:49 18.4 °C 12.2 °C 1019.5 hPa West 7.7 km/h 14.5 km/h 67% 0 mm 663 W/m2
16:54 18.6 °C 12.2 °C 1019.5 hPa WSW 8.4 km/h 16.1 km/h 66.3% 0 mm 336 W/m2
16:59 18.5 °C 12.1 °C 1019.5 hPa West 5.8 km/h 16.1 km/h 66.2% 0 mm 253 W/m2
17:04 18.7 °C 12.4 °C 1019.5 hPa WNW 9.8 km/h 16.1 km/h 67% 0 mm 686 W/m2
17:09 18.9 °C 12.7 °C 1019.5 hPa WNW 7.7 km/h 12.9 km/h 67% 0 mm 686 W/m2
17:14 19.1 °C 12.8 °C 1019.5 hPa WSW 7.1 km/h 11.3 km/h 67% 0 mm 636 W/m2
17:19 19.4 °C 12.9 °C 1019.5 hPa West 7.4 km/h 11.3 km/h 66.2% 0 mm 615 W/m2
17:24 19.4 °C 12.7 °C 1019.5 hPa West 6.4 km/h 12.9 km/h 65.2% 0 mm 547 W/m2
17:29 19 °C 12.7 °C 1019.9 hPa West 6.6 km/h 11.3 km/h 66.8% 0 mm 135 W/m2
17:34 18.6 °C 12.7 °C 1019.9 hPa WSW 6.6 km/h 11.3 km/h 68.6% 0 mm 294 W/m2
17:39 18.6 °C 12.7 °C 1019.9 hPa West 6.4 km/h 14.5 km/h 69% 0 mm 239 W/m2
17:44 18.4 °C 12.8 °C 1019.9 hPa WNW 8.9 km/h 14.5 km/h 70% 0 mm 218 W/m2
17:49 18.2 °C 12.6 °C 1019.9 hPa WNW 9 km/h 17.7 km/h 70.2% 0 mm 190 W/m2
17:54 18.2 °C 12.9 °C 1019.5 hPa WNW 7.7 km/h 17.7 km/h 71% 0 mm 527 W/m2
17:59 18.4 °C 12.7 °C 1019.5 hPa NW 12.1 km/h 19.3 km/h 69.6% 0 mm 519 W/m2
18:04 18.4 °C 12.8 °C 1019.5 hPa WNW 11.3 km/h 19.3 km/h 70% 0 mm 462 W/m2
18:09 18.6 °C 13 °C 1019.5 hPa WNW 7.9 km/h 14.5 km/h 70.2% 0 mm 436 W/m2
18:14 18.4 °C 12.8 °C 1019.9 hPa WNW 9 km/h 17.7 km/h 70.2% 0 mm 257 W/m2
18:19 18.3 °C 12.9 °C 1019.9 hPa WNW 10.6 km/h 17.7 km/h 70.6% 0 mm 533 W/m2
18:24 18.3 °C 12.7 °C 1019.9 hPa WNW 8.2 km/h 20.9 km/h 70% 0 mm 506 W/m2
18:29 18.2 °C 12.5 °C 1019.9 hPa WNW 9.7 km/h 20.9 km/h 69.6% 0 mm 415 W/m2
18:34 18.2 °C 12.6 °C 1019.9 hPa WNW 7.7 km/h 14.5 km/h 70% 0 mm 387 W/m2
18:39 18.2 °C 12.6 °C 1019.9 hPa West 7.9 km/h 17.7 km/h 70% 0 mm 355 W/m2
18:44 17.9 °C 12.4 °C 1019.9 hPa WNW 12.9 km/h 17.7 km/h 70.2% 0 mm 301 W/m2
18:49 17.6 °C 12.3 °C 1019.9 hPa WNW 8.5 km/h 16.1 km/h 70.8% 0 mm 244 W/m2
18:54 17.4 °C 11.9 °C 1019.9 hPa NW 10.9 km/h 20.9 km/h 70.4% 0 mm 267 W/m2
18:59 17.1 °C 11.6 °C 1019.9 hPa NW 13.2 km/h 22.5 km/h 70.2% 0 mm 234 W/m2
19:04 16.7 °C 11.6 °C 1019.9 hPa West 9.7 km/h 16.1 km/h 71.6% 0 mm 63 W/m2
19:09 16.4 °C 11.3 °C 1019.9 hPa West 9.7 km/h 17.7 km/h 72% 0 mm 91 W/m2
19:14 16.2 °C 11.4 °C 1019.9 hPa WNW 11.4 km/h 19.3 km/h 73% 0 mm 70 W/m2
19:19 15.9 °C 11.1 °C 1019.9 hPa WNW 9.2 km/h 16.1 km/h 73% 0 mm 69 W/m2
19:24 15.8 °C 11.1 °C 1020.2 hPa West 8 km/h 16.1 km/h 73% 0 mm 90 W/m2
19:29 15.8 °C 11 °C 1020.2 hPa West 5.1 km/h 12.9 km/h 73% 0 mm 95 W/m2
19:34 15.7 °C 10.7 °C 1020.2 hPa WNW 8 km/h 16.1 km/h 71.6% 0 mm 88 W/m2
19:39 15.6 °C 10.4 °C 1020.2 hPa WNW 5.1 km/h 9.7 km/h 71% 0 mm 56 W/m2
19:44 15.5 °C 10.3 °C 1020.2 hPa West 5.8 km/h 14.5 km/h 71% 0 mm 58 W/m2
19:49 15.4 °C 10.4 °C 1020.2 hPa West 6.4 km/h 11.3 km/h 72% 0 mm 56 W/m2
19:54 15.3 °C 10.3 °C 1020.2 hPa West 3.9 km/h 6.4 km/h 72% 0 mm 46 W/m2
19:59 15.3 °C 10.5 °C 1020.2 hPa West 3.2 km/h 6.4 km/h 73% 0 mm 39 W/m2
20:04 15.2 °C 10.3 °C 1020.2 hPa West 4.5 km/h 8 km/h 72.2% 0 mm 37 W/m2
20:09 15.1 °C 10.1 °C 1020.2 hPa West 4.7 km/h 8 km/h 71.8% 0 mm 40 W/m2
20:14 14.9 °C 9.7 °C 1020.5 hPa WNW 5.8 km/h 9.7 km/h 70.6% 0 mm 39 W/m2
20:19 14.9 °C 9.2 °C 1020.5 hPa West 6.1 km/h 8 km/h 68.6% 0 mm 28 W/m2
20:24 14.8 °C 9.1 °C 1020.5 hPa West 4.7 km/h 8 km/h 68.2% 0 mm 25 W/m2
20:29 14.7 °C 8.9 °C 1020.5 hPa West 4.7 km/h 9.7 km/h 68% 0 mm 25 W/m2
20:34 14.7 °C 8.9 °C 1020.9 hPa West 2.4 km/h 8 km/h 68% 0 mm 19 W/m2
20:39 14.6 °C 8.9 °C 1020.9 hPa West 3.2 km/h 4.8 km/h 68.4% 0 mm 16 W/m2
20:44 14.5 °C 8.8 °C 1020.9 hPa West 3.4 km/h 6.4 km/h 68.6% 0 mm 9 W/m2
20:49 14.4 °C 8.7 °C 1020.9 hPa West 3.1 km/h 6.4 km/h 68.6% 0 mm 5 W/m2
20:54 14.3 °C 8.7 °C 1020.9 hPa WNW 5.8 km/h 9.7 km/h 69% 0 mm 0 W/m2
20:59 14.2 °C 8.7 °C 1021.2 hPa WNW 4.5 km/h 8 km/h 69.6% 0 mm 0 W/m2
21:04 14.2 °C 8.8 °C 1021.2 hPa WNW 5.3 km/h 11.3 km/h 70% 0 mm 0 W/m2
21:09 14.1 °C 8.8 °C 1021.2 hPa WNW 3.1 km/h 8 km/h 70.8% 0 mm 0 W/m2
21:14 14 °C 8.8 °C 1021.2 hPa WNW 3.9 km/h 8 km/h 71.2% 0 mm 0 W/m2
21:19 13.9 °C 8.9 °C 1021.2 hPa WNW 1.6 km/h 6.4 km/h 72% 0 mm 0 W/m2
21:24 13.8 °C 8.9 °C 1021.2 hPa WNW 1.4 km/h 4.8 km/h 72.6% 0 mm 0 W/m2
21:29 13.8 °C 9 °C 1020.9 hPa WNW 3.5 km/h 6.4 km/h 73% 0 mm 0 W/m2
21:34 13.7 °C 9 °C 1020.9 hPa WNW 1.4 km/h 6.4 km/h 73.6% 0 mm 0 W/m2
21:39 13.7 °C 9.1 °C 1020.9 hPa WNW 0.8 km/h 3.2 km/h 74% 0 mm 0 W/m2
21:44 13.6 °C 9.1 °C 1020.5 hPa Calm   3.2 km/h 74% 0 mm 0 W/m2
21:49 13.6 °C 9.1 °C 1020.5 hPa WNW 0.8 km/h 3.2 km/h 74% 0 mm 0 W/m2
21:54 13.6 °C 9.2 °C 1020.5 hPa WNW 1.6 km/h 4.8 km/h 74.6% 0 mm 0 W/m2
21:59 13.4 °C 9.2 °C 1020.5 hPa WNW 3.2 km/h 4.8 km/h 75.2% 0 mm 0 W/m2
22:04 13.3 °C 9.2 °C 1020.5 hPa WNW 2.7 km/h 4.8 km/h 76% 0 mm 0 W/m2
22:09 13.2 °C 9.1 °C 1020.5 hPa WNW 1.3 km/h 6.4 km/h 76% 0 mm 0 W/m2
22:14 13.2 °C 9.1 °C 1020.5 hPa WNW 2.1 km/h 6.4 km/h 76% 0 mm 0 W/m2
22:19 13.2 °C 9.2 °C 1020.5 hPa WNW 1.3 km/h 3.2 km/h 76.8% 0 mm 0 W/m2
22:24 13.2 °C 9.2 °C 1020.5 hPa WNW 1.4 km/h 3.2 km/h 77% 0 mm 0 W/m2
22:29 13.1 °C 9.2 °C 1020.5 hPa WNW 1.6 km/h 4.8 km/h 77% 0 mm 0 W/m2
22:34 13.1 °C 9.2 °C 1020.5 hPa Calm   3.2 km/h 77% 0 mm 0 W/m2
22:39 13.1 °C 9.2 °C 1020.5 hPa WNW 1.3 km/h 3.2 km/h 77% 0 mm 0 W/m2
22:44 13.1 °C 9.2 °C 1020.9 hPa WNW 2.1 km/h 3.2 km/h 77% 0 mm 0 W/m2
22:49 13.1 °C 9.2 °C 1020.9 hPa WNW 1.9 km/h 4.8 km/h 77% 0 mm 0 W/m2
22:54 13.1 °C 9.2 °C 1020.9 hPa WNW 0.8 km/h 4.8 km/h 77% 0 mm 0 W/m2
22:59 13 °C 9.1 °C 1020.5 hPa WNW 1.4 km/h 4.8 km/h 77% 0 mm 0 W/m2
23:04 12.9 °C 9 °C 1020.9 hPa WNW 0.8 km/h 4.8 km/h 77% 0 mm 0 W/m2
23:09 12.9 °C 9 °C 1020.5 hPa WNW 0.3 km/h 1.6 km/h 77% 0 mm 0 W/m2
23:14 12.9 °C 9 °C 1020.9 hPa Calm   1.6 km/h 77% 0 mm 0 W/m2
23:19 13 °C 9.2 °C 1020.9 hPa WNW 0.3 km/h 3.2 km/h 77.2% 0 mm 0 W/m2
23:24 13 °C 9.3 °C 1020.9 hPa WNW 0.6 km/h 3.2 km/h 78% 0 mm 0 W/m2
23:34 12.8 °C 9.2 °C 1020.5 hPa WNW 0.6 km/h 3.2 km/h 78% 0 mm 0 W/m2
23:39 12.7 °C 9 °C 1020.5 hPa WNW 3.9 km/h 6.4 km/h 78% 0 mm 0 W/m2
23:43 12.7 °C 8.9 °C 1020.5 hPa WNW 0.8 km/h 3.2 km/h 78% 0 mm 0 W/m2
23:49 12.6 °C 8.9 °C 1020.5 hPa WNW 0.3 km/h 3.2 km/h 78% 0 mm 0 W/m2
23:54 12.6 °C 8.9 °C 1020.5 hPa WNW 2.1 km/h 3.2 km/h 78% 0 mm 0 W/m2
23:59 12.5 °C 8.8 °C 1020.5 hPa WNW 2.3 km/h 3.2 km/h 78% 0 mm 0 W/m2
Bath Spa Weather
Compliments of Weather Underground - 2 mb